Time;durP1;ratioP1;P1;durP2;ratioP2;P2;SDS_P1;SDS_P2;PMS_P1;PMS_P2;Temp;Humidity;BMP_temperature;BMP_pressure;BME280_temperature;BME280_humidity;BME280_pressure;Samples;Min_cycle;Max_cycle;Signal;HPM_P1;HPM_P2
2021/03/27 00:00:24;;;;;;;13.82;6.68;;;13.40;57.90;;;12.56;50.32;98353.53;4972901;28;20428;-76
2021/03/27 00:03:05;;;;;;;13.48;6.20;;;13.40;58.10;;;12.56;50.71;98350.09;4990025;28;20415;-76
2021/03/27 00:05:39;;;;;;;12.95;6.35;;;13.40;58.60;;;12.64;51.26;98361.13;4989065;28;20820;-75
2021/03/27 00:08:15;;;;;;;13.33;7.20;;;13.50;59.30;;;12.50;52.23;98362.47;4988622;28;20445;-75
2021/03/27 00:10:49;;;;;;;17.23;7.55;;;13.40;60.20;;;12.45;52.48;98362.41;4989400;28;20422;-75
2021/03/27 00:13:44;;;;;;;13.20;6.18;;;13.30;60.70;;;12.55;52.65;98361.78;4990419;28;20538;-75
2021/03/27 00:16:21;;;;;;;11.32;6.07;;;13.40;61.20;;;12.47;53.07;98359.50;4990826;28;20446;-76
2021/03/27 00:19:02;;;;;;;10.48;6.28;;;13.40;61.40;;;12.40;53.22;98362.31;4993376;28;20533;-76
2021/03/27 00:21:36;;;;;;;12.13;6.22;;;13.30;61.80;;;12.50;53.10;98367.78;4992448;28;20514;-76
2021/03/27 00:24:10;;;;;;;10.20;5.60;;;13.30;61.70;;;12.54;52.91;98366.28;4992577;28;20419;-76
2021/03/27 00:26:42;;;;;;;11.02;4.78;;;13.40;61.40;;;12.41;52.33;98355.94;4992562;28;20434;-76
2021/03/27 00:29:17;;;;;;;7.78;5.13;;;13.30;61.00;;;12.42;52.60;98333.66;4992594;28;20430;-76
2021/03/27 00:31:46;;;;;;;8.98;4.88;;;13.30;61.00;;;12.41;52.64;98318.75;4991805;28;20529;-77
2021/03/27 00:34:18;;;;;;;7.15;4.95;;;13.30;61.10;;;12.37;53.21;98337.03;4991708;28;20479;-76
2021/03/27 00:36:50;;;;;;;9.50;5.03;;;13.30;61.60;;;12.31;53.58;98326.56;4992936;28;20437;-76
2021/03/27 00:39:22;;;;;;;12.50;5.82;;;13.20;62.20;;;12.28;53.81;98335.00;4991810;28;20418;-75
2021/03/27 00:41:54;;;;;;;7.90;4.70;;;13.10;62.50;;;12.29;53.85;98333.97;4991606;28;20461;-77
2021/03/27 00:44:27;;;;;;;7.50;4.65;;;13.10;62.80;;;12.33;54.05;98332.44;4991349;28;20809;-75
2021/03/27 00:46:54;;;;;;;19.23;5.47;;;13.20;63.20;;;12.31;54.47;98326.56;4990996;28;20764;-75
2021/03/27 00:49:29;;;;;;;9.35;4.85;;;13.10;63.50;;;12.22;54.87;98326.16;4990684;28;20459;-76
2021/03/27 00:52:04;;;;;;;9.77;4.72;;;13.10;63.80;;;12.07;55.31;98339.13;4990486;28;20430;-75
2021/03/27 00:54:34;;;;;;;10.10;5.03;;;13.00;64.20;;;12.02;55.44;98334.56;4991476;28;20838;-75
2021/03/27 00:57:11;;;;;;;7.97;4.82;;;12.90;64.60;;;11.92;55.58;98339.66;4992513;28;20422;-77
2021/03/27 00:59:57;;;;;;;6.57;4.55;;;12.80;64.60;;;11.85;55.65;98331.03;4991505;28;20541;-77
2021/03/27 01:02:24;;;;;;;6.90;4.70;;;12.80;65.00;;;11.94;55.45;98326.97;4992101;28;20438;-74
2021/03/27 01:04:52;;;;;;;7.63;4.20;;;12.80;64.70;;;11.88;55.26;98324.41;4992951;28;20514;-77
2021/03/27 01:07:23;;;;;;;7.53;4.55;;;12.80;64.60;;;11.85;55.25;98328.38;4992800;28;20418;-77
2021/03/27 01:09:53;;;;;;;8.02;4.43;;;12.70;64.60;;;11.82;55.70;98334.13;4990111;28;20423;-76
2021/03/27 01:12:28;;;;;;;7.32;4.38;;;12.70;65.00;;;11.85;56.13;98340.84;4997084;28;20438;-76
2021/03/27 01:14:59;;;;;;;7.95;5.18;;;12.70;65.30;;;11.77;56.59;98330.59;4994954;28;20595;-76
2021/03/27 01:17:32;;;;;;;8.48;5.30;;;12.70;66.10;;;11.70;57.42;98333.34;4992925;28;20426;-76
2021/03/27 01:20:05;;;;;;;7.47;4.90;;;12.60;66.90;;;11.70;57.98;98349.25;4992535;28;20455;-76
2021/03/27 01:22:31;;;;;;;8.85;5.18;;;12.60;67.80;;;11.55;58.97;98349.75;4991518;28;20481;-76
2021/03/27 01:24:59;;;;;;;7.50;4.75;;;12.50;68.90;;;11.43;60.00;98345.50;4991517;28;20797;-76
2021/03/27 01:27:29;;;;;;;5.80;4.70;;;12.40;69.80;;;11.42;60.22;98355.31;4994260;28;20454;-76
2021/03/27 01:30:05;;;;;;;7.35;5.25;;;12.30;70.20;;;11.40;60.51;98359.22;5001027;28;20422;-75
2021/03/27 01:32:45;;;;;;;10.25;5.50;;;12.30;70.70;;;11.39;60.44;98352.31;4993450;28;20434;-76
2021/03/27 01:35:17;;;;;;;11.75;5.20;;;12.30;70.90;;;11.29;60.90;98352.06;4993171;28;20479;-76
2021/03/27 01:37:48;;;;;;;7.68;5.15;;;12.20;71.30;;;11.41;60.73;98350.25;4992511;28;20491;-76
2021/03/27 01:40:28;;;;;;;6.38;4.72;;;12.20;71.60;;;11.42;60.58;98360.63;4991414;28;20418;-76
2021/03/27 01:43:25;;;;;;;9.90;5.18;;;12.30;71.40;;;11.36;60.86;98361.50;4989320;28;20421;-75
2021/03/27 01:46:22;;;;;;;12.80;5.50;;;12.20;71.60;;;11.43;61.83;98369.34;4989504;28;20452;-75
2021/03/27 01:49:17;;;;;;;8.82;5.40;;;12.30;72.80;;;11.29;63.12;98355.53;4998499;28;20443;-75
2021/03/27 01:52:11;;;;;;;8.88;5.10;;;12.20;74.00;;;11.16;64.35;98361.06;4994150;28;20445;-75
2021/03/27 01:54:51;;;;;;;10.05;5.38;;;12.10;75.50;;;11.06;64.55;98360.84;4994793;28;20436;-75
2021/03/27 01:57:28;;;;;;;10.10;5.00;;;12.00;76.10;;;11.10;64.44;98373.41;4997564;28;20442;-75
2021/03/27 01:59:59;;;;;;;7.80;5.38;;;12.00;76.10;;;11.06;65.72;98377.53;4998835;28;20474;-75
2021/03/27 02:02:34;;;;;;;7.22;5.05;;;11.90;77.20;;;11.04;65.16;98376.97;4997791;28;20415;-75
2021/03/27 02:05:06;;;;;;;8.35;5.32;;;11.90;77.20;;;10.96;65.93;98376.50;5000293;28;20436;-75
2021/03/27 02:07:49;;;;;;;10.85;4.95;;;11.90;77.50;;;10.98;66.07;98387.66;5003016;28;20415;-75
2021/03/27 02:10:27;;;;;;;7.88;5.45;;;11.90;78.00;;;10.75;67.21;98385.81;5003905;28;20590;-75
2021/03/27 02:13:03;;;;;;;8.48;5.20;;;11.80;78.70;;;10.86;67.23;98395.59;4979057;28;20420;-75
2021/03/27 02:15:41;;;;;;;7.45;4.93;;;11.70;79.30;;;10.78;67.45;98395.94;4995438;28;20414;-75
2021/03/27 02:18:21;;;;;;;11.48;5.55;;;11.70;79.50;;;10.81;67.82;98395.50;4994783;28;20418;-75
2021/03/27 02:21:36;;;;;;;10.90;5.70;;;11.70;79.90;;;10.82;68.24;98395.28;4994962;28;20415;-77
2021/03/27 02:24:25;;;;;;;10.18;5.72;;;11.70;79.80;;;10.68;68.24;98400.97;4995207;28;20442;-75
2021/03/27 02:27:03;;;;;;;10.90;5.88;;;11.70;80.30;;;10.68;68.33;98395.66;4997913;28;20457;-75
2021/03/27 02:30:02;;;;;;;8.87;6.03;;;11.60;80.60;;;10.73;68.72;98401.91;4995400;28;20491;-76
2021/03/27 02:32:52;;;;;;;8.60;5.38;;;11.60;81.30;;;10.65;69.48;98410.19;4994123;28;20435;-76
2021/03/27 02:35:41;;;;;;;10.38;6.15;;;11.60;81.40;;;10.73;69.30;98407.22;4994995;28;20740;-76
2021/03/27 02:38:23;;;;;;;8.15;5.70;;;11.60;81.90;;;10.70;69.59;98404.19;4995003;28;20628;-75
2021/03/27 02:41:22;;;;;;;8.80;5.93;;;11.50;82.20;;;10.74;69.79;98419.44;4994664;28;20475;-75
2021/03/27 02:43:56;;;;;;;8.90;5.97;;;11.60;82.40;;;10.62;70.04;98429.16;4991955;28;20795;-76
2021/03/27 02:46:31;;;;;;;9.32;6.00;;;11.50;83.30;;;10.55;70.13;98420.50;4996359;28;20449;-76
2021/03/27 02:49:25;;;;;;;11.02;6.30;;;11.50;82.90;;;10.47;70.50;98405.75;5003302;28;21805;-76
2021/03/27 02:52:03;;;;;;;10.85;5.80;;;11.40;82.90;;;10.45;70.53;98391.91;5001935;28;20493;-76
2021/03/27 02:54:45;;;;;;;8.85;6.03;;;11.40;83.40;;;10.35;71.22;98385.56;4994367;28;20629;-77
2021/03/27 02:57:18;;;;;;;9.18;5.97;;;11.30;83.80;;;10.30;71.53;98386.22;4994772;28;20616;-76
2021/03/27 02:59:59;;;;;;;9.50;6.30;;;11.20;84.30;;;10.33;71.42;98387.63;4994647;28;20800;-76
2021/03/27 03:02:42;;;;;;;7.30;5.65;;;11.30;84.30;;;10.35;71.64;98396.16;4995020;28;20419;-76
2021/03/27 03:05:13;;;;;;;13.00;5.87;;;11.30;84.50;;;10.35;71.31;98394.31;4995166;28;20866;-76
2021/03/27 03:07:52;;;;;;;9.68;5.97;;;11.20;84.60;;;10.28;71.70;98393.59;4994922;28;20466;-76
2021/03/27 03:10:28;;;;;;;8.95;5.53;;;11.20;84.60;;;10.18;72.11;98382.75;4994410;28;20439;-76
2021/03/27 03:13:06;;;;;;;7.60;5.30;;;11.20;84.70;;;10.22;72.23;98368.03;4993769;28;20525;-76
2021/03/27 03:15:41;;;;;;;7.20;5.10;;;11.10;84.90;;;10.20;71.74;98379.88;4977069;28;20941;-77
2021/03/27 03:18:21;;;;;;;9.90;5.00;;;11.10;84.70;;;10.14;71.79;98399.25;4978055;28;20422;-76
2021/03/27 03:20:57;;;;;;;8.15;5.18;;;11.10;84.50;;;10.12;71.95;98410.06;4995578;28;20505;-76
2021/03/27 03:23:34;;;;;;;7.45;5.30;;;11.10;84.70;;;10.15;72.14;98412.25;4996436;28;20496;-76
2021/03/27 03:26:20;;;;;;;6.78;4.68;;;11.10;85.10;;;10.20;71.61;98412.44;4975308;28;20440;-76
2021/03/27 03:28:58;;;;;;;7.88;4.95;;;11.10;84.60;;;10.21;71.19;98422.00;4994588;28;20422;-76
2021/03/27 03:31:39;;;;;;;6.95;4.88;;;11.10;85.00;;;10.21;71.58;98432.56;4994270;28;20858;-76
2021/03/27 03:34:34;;;;;;;7.18;5.13;;;11.10;84.40;;;10.20;71.30;98449.47;4998590;28;20423;-76
2021/03/27 03:37:12;;;;;;;6.10;4.47;;;11.10;85.10;;;10.22;71.67;98459.84;4997604;28;20468;-76
2021/03/27 03:40:16;;;;;;;7.63;4.80;;;11.10;84.90;;;10.31;71.50;98479.66;4996662;28;20881;-76
2021/03/27 03:43:22;;;;;;;8.43;4.43;;;11.20;84.40;;;10.21;72.00;98498.72;4997133;28;20418;-76
2021/03/27 03:46:25;;;;;;;7.22;3.65;;;11.20;85.00;;;9.36;76.23;98561.09;4996447;28;20439;-76
2021/03/27 03:49:25;;;;;;;4.88;3.28;;;10.60;88.80;;;8.83;73.39;98569.34;4993180;28;20431;-76
2021/03/27 03:52:29;;;;;;;2.88;1.77;;;9.90;86.80;;;8.40;71.29;98541.94;4974320;28;20431;-76
2021/03/27 03:55:10;;;;;;;1.87;1.70;;;9.40;83.30;;;8.20;69.68;98562.22;4997547;28;20407;-75
2021/03/27 03:57:59;;;;;;;2.15;1.73;;;9.30;81.70;;;8.05;69.73;98565.09;4993347;28;20482;-76
2021/03/27 04:00:32;;;;;;;2.05;1.63;;;9.10;83.00;;;8.17;68.65;98555.56;4993149;28;20449;-76
2021/03/27 04:03:15;;;;;;;2.17;1.50;;;9.10;81.40;;;8.20;69.20;98554.31;4992065;28;20515;-76
2021/03/27 04:05:50;;;;;;;1.90;1.60;;;9.20;81.40;;;8.32;67.95;98553.53;4990727;28;20437;-76
2021/03/27 04:08:27;;;;;;;1.85;1.40;;;9.30;81.00;;;8.45;68.57;98571.94;4994577;28;20511;-76
2021/03/27 04:10:58;;;;;;;3.65;1.80;;;9.40;81.40;;;8.49;68.26;98582.91;4994698;28;20513;-77
2021/03/27 04:13:32;;;;;;;2.85;1.67;;;9.50;81.30;;;8.54;68.75;98596.28;4979204;28;20422;-77
2021/03/27 04:16:04;;;;;;;1.48;1.30;;;9.50;81.60;;;8.43;67.76;98602.19;4995321;28;20537;-77
2021/03/27 04:18:38;;;;;;;2.90;1.55;;;9.50;80.10;;;8.39;68.18;98601.78;4995217;28;20427;-76
2021/03/27 04:21:10;;;;;;;1.60;1.50;;;9.40;81.00;;;8.41;67.67;98598.97;4977480;28;20538;-77
2021/03/27 04:23:45;;;;;;;2.35;1.50;;;9.40;80.50;;;8.19;67.11;98616.84;4996409;28;20480;-77
2021/03/27 04:26:31;;;;;;;1.87;1.60;;;9.20;79.50;;;8.03;66.54;98623.34;4978156;28;20878;-76
2021/03/27 04:29:28;;;;;;;3.15;1.40;;;9.00;78.90;;;7.91;65.75;98624.13;4977876;28;20729;-76
2021/03/27 04:32:30;;;;;;;2.10;1.55;;;8.90;78.50;;;7.68;66.50;98619.25;4996736;28;20434;-76
2021/03/27 04:35:13;;;;;;;1.58;1.48;;;8.70;78.80;;;7.50;66.90;98630.41;4994365;28;20460;-76
2021/03/27 04:37:46;;;;;;;2.63;1.65;;;8.50;79.30;;;7.42;66.43;98635.06;4993125;28;20771;-76
2021/03/27 04:40:21;;;;;;;2.35;1.70;;;8.50;78.80;;;7.60;67.01;98635.28;4975338;28;20565;-76
2021/03/27 04:42:54;;;;;;;2.88;1.50;;;8.60;80.00;;;7.52;67.66;98640.75;4993061;28;20642;-76
2021/03/27 04:45:27;;;;;;;3.40;1.50;;;8.60;80.00;;;7.58;66.89;98653.13;4991729;28;20433;-76
2021/03/27 04:48:14;;;;;;;5.13;1.65;;;8.60;79.20;;;7.76;67.29;98671.78;4993539;28;20418;-76
2021/03/27 04:50:52;;;;;;;3.35;1.63;;;8.70;80.00;;;7.90;66.45;98683.97;4992564;28;20832;-77
2021/03/27 04:53:30;;;;;;;2.55;1.60;;;8.90;79.20;;;7.84;66.32;98694.50;4993117;28;20449;-77
2021/03/27 04:56:09;;;;;;;3.37;1.50;;;8.90;78.50;;;7.69;65.72;98692.03;4992355;28;20461;-77
2021/03/27 04:58:43;;;;;;;3.63;1.70;;;8.80;77.70;;;7.78;66.47;98701.41;4992769;28;20472;-76
2021/03/27 05:01:25;;;;;;;2.83;1.58;;;8.70;78.90;;;7.49;65.35;98713.09;4989626;28;20440;-76
2021/03/27 05:03:58;;;;;;;1.50;1.40;;;8.60;77.40;;;7.18;64.97;98732.03;4992358;28;20418;-76
2021/03/27 05:06:35;;;;;;;2.28;1.58;;;8.30;76.50;;;7.07;65.32;98732.56;4992300;28;20422;-76
2021/03/27 05:09:39;;;;;;;1.30;1.30;;;8.10;77.20;;;6.98;65.67;98737.22;4992742;28;20414;-76
2021/03/27 05:12:15;;;;;;;2.08;1.60;;;8.00;77.60;;;7.06;66.65;98751.22;4996821;28;20466;-76
2021/03/27 05:15:08;;;;;;;1.40;1.30;;;8.10;79.40;;;7.01;66.20;98754.41;4993790;28;20402;-77
2021/03/27 05:18:39;;;;;;;2.40;1.60;;;8.00;78.00;;;7.00;65.99;98763.31;4993520;28;20544;-76
2021/03/27 05:21:22;;;;;;;1.70;1.40;;;8.00;78.50;;;6.88;66.44;98781.47;4974355;28;20495;-77
2021/03/27 05:24:04;;;;;;;1.98;1.50;;;8.00;78.40;;;6.93;66.38;98780.91;4996248;28;20548;-77
2021/03/27 05:26:47;;;;;;;2.07;1.30;;;7.90;78.30;;;6.92;65.87;98795.88;4978052;28;20440;-77
2021/03/27 05:29:54;;;;;;;1.37;1.17;;;8.00;78.30;;;6.63;67.53;98798.72;4994121;28;20807;-77
2021/03/27 05:33:07;;;;;;;2.30;1.75;;;7.80;78.90;;;6.62;67.07;98802.34;4993911;28;20435;-79
2021/03/27 05:35:42;;;;;;;1.40;1.30;;;7.70;79.50;;;6.74;67.79;98819.25;4998594;28;20482;-79
2021/03/27 05:38:18;;;;;;;3.55;1.50;;;7.70;80.40;;;6.75;67.14;98825.31;4999125;28;20421;-80
2021/03/27 05:41:17;;;;;;;1.40;1.30;;;7.80;79.70;;;6.78;66.73;98833.63;5002659;28;20422;-79
2021/03/27 05:45:01;;;;;;;1.35;1.20;;;7.80;79.40;;;6.77;67.12;98839.09;4998231;28;20526;-78
2021/03/27 05:48:19;;;;;;;1.30;1.20;;;7.80;79.40;;;6.78;66.51;98854.69;5001987;28;20473;-80
2021/03/27 05:51:40;;;;;;;2.70;1.30;;;7.80;79.40;;;6.73;66.46;98870.25;4997092;28;20428;-78
2021/03/27 05:54:44;;;;;;;1.25;1.15;;;7.80;78.30;;;6.68;66.16;98875.28;5009407;28;20442;-79
2021/03/27 05:57:48;;;;;;;2.00;1.52;;;7.70;78.20;;;6.66;66.61;98892.25;5011856;28;20438;-79
2021/03/27 06:00:34;;;;;;;1.40;1.30;;;7.70;79.00;;;6.51;64.24;98921.25;5005330;28;20888;-76
2021/03/27 06:03:39;;;;;;;1.33;1.23;;;7.60;75.50;;;6.40;64.40;98914.66;4999886;28;20415;-78
2021/03/27 06:06:40;;;;;;;3.45;1.40;;;7.40;76.10;;;6.54;63.11;98911.16;5002437;28;20434;-78
2021/03/27 06:09:47;;;;;;;2.00;1.40;;;7.60;75.30;;;6.46;62.63;98919.19;4998348;28;20792;-78
2021/03/27 06:12:47;;;;;;;2.67;1.35;;;7.50;74.20;;;6.42;62.60;98943.41;4998571;28;20438;-78
2021/03/27 06:15:37;;;;;;;2.90;1.40;;;7.50;73.90;;;6.43;62.15;98937.16;4999849;28;20422;-77
2021/03/27 06:19:00;;;;;;;2.42;1.48;;;7.40;73.80;;;6.41;61.95;98945.22;4996110;28;20419;-77
2021/03/27 06:21:41;;;;;;;3.35;1.60;;;7.40;73.40;;;6.44;62.10;98957.19;4980584;28;20480;-79
2021/03/27 06:24:38;;;;;;;1.60;1.40;;;7.50;73.80;;;6.31;62.63;98952.59;4996136;28;20559;-78
2021/03/27 06:27:47;;;;;;;1.90;1.40;;;7.40;73.60;;;6.28;63.62;98968.75;4996254;28;20429;-77
2021/03/27 06:31:17;;;;;;;3.80;2.00;;;7.30;75.40;;;6.29;63.86;98972.19;4978395;28;20447;-77
2021/03/27 06:34:18;;;;;;;3.50;1.60;;;7.30;74.80;;;6.39;63.80;98977.97;4994481;28;20508;-78
2021/03/27 06:37:11;;;;;;;3.33;1.70;;;7.40;76.20;;;6.18;63.88;98990.06;4996885;28;20526;-77
2021/03/27 06:40:35;;;;;;;2.95;1.50;;;7.30;75.70;;;6.31;63.89;98991.25;4995515;28;20645;-78
2021/03/27 06:43:45;;;;;;;3.80;1.58;;;7.30;75.40;;;6.22;63.01;99001.84;5009214;28;20495;-78
2021/03/27 06:47:04;;;;;;;3.78;1.75;;;7.40;74.80;;;6.43;62.61;99003.72;5011496;28;20419;-78
2021/03/27 06:50:14;;;;;;;3.30;1.50;;;7.50;75.50;;;6.42;62.69;99001.25;4999491;28;20611;-78
2021/03/27 06:53:13;;;;;;;3.97;2.60;;;7.50;74.00;;;6.38;61.02;99000.84;5007596;28;20449;-77
2021/03/27 06:55:51;;;;;;;2.83;1.65;;;7.40;72.70;;;6.61;61.62;99012.00;4997175;28;20419;-77
2021/03/27 06:59:08;;;;;;;3.13;1.80;;;7.60;73.40;;;6.90;60.63;99015.56;4994380;28;20568;-77
2021/03/27 07:02:23;;;;;;;3.67;1.80;;;7.80;72.60;;;6.81;60.58;99019.31;4994352;28;20433;-76
2021/03/27 07:06:02;;;;;;;2.28;1.50;;;7.80;72.10;;;7.20;57.14;99024.16;4994030;28;20426;-76
2021/03/27 07:08:54;;;;;;;4.90;1.92;;;8.10;68.20;;;7.29;55.41;99021.19;4993842;28;20694;-76
2021/03/27 07:11:58;;;;;;;3.38;1.60;;;8.30;66.20;;;6.91;55.08;99030.38;4993689;28;20622;-77
2021/03/27 07:14:54;;;;;;;2.28;1.73;;;8.00;65.10;;;6.77;53.05;99041.72;4995087;28;20414;-78
2021/03/27 07:17:36;;;;;;;3.80;1.52;;;7.80;62.90;;;7.14;52.62;99043.34;4977346;28;20795;-75
2021/03/27 07:20:34;;;;;;;8.85;1.70;;;8.00;62.80;;;7.34;52.09;99039.88;4997968;28;20751;-78
2021/03/27 07:23:36;;;;;;;10.98;1.80;;;8.30;61.70;;;7.44;51.97;99034.28;5004922;28;20418;-76
2021/03/27 07:26:41;;;;;;;3.53;1.50;;;8.40;61.20;;;7.20;52.12;99043.41;4978839;28;20428;-77
2021/03/27 07:29:46;;;;;;;3.63;1.60;;;8.20;61.00;;;6.58;52.79;99054.50;5010980;28;20411;-77
2021/03/27 07:32:41;;;;;;;6.05;1.58;;;7.80;61.50;;;6.74;52.19;99047.38;4997507;28;20441;-78
2021/03/27 07:35:38;;;;;;;3.72;1.70;;;7.70;62.20;;;6.56;52.96;99056.47;4994784;28;20479;-76
2021/03/27 07:38:40;;;;;;;4.53;1.60;;;7.60;61.80;;;6.89;52.32;99042.88;4996215;28;20562;-78
2021/03/27 07:41:48;;;;;;;4.05;1.65;;;7.80;62.30;;;6.90;52.00;99052.41;4994710;28;20525;-78
2021/03/27 07:44:56;;;;;;;5.32;1.80;;;8.00;61.30;;;7.05;51.10;99047.09;4993430;28;20423;-78
2021/03/27 07:47:53;;;;;;;2.45;1.55;;;8.00;61.00;;;7.13;51.06;99044.34;4997616;28;20433;-77
2021/03/27 07:50:47;;;;;;;2.77;1.43;;;8.10;60.50;;;7.69;49.37;99045.22;4994181;28;20419;-78
2021/03/27 07:53:43;;;;;;;4.25;1.33;;;8.50;59.20;;;7.82;48.78;99070.88;4994683;28;20746;-77
2021/03/27 07:56:36;;;;;;;2.60;1.50;;;8.80;57.10;;;7.19;49.68;99062.84;4993524;28;20426;-76
2021/03/27 07:59:47;;;;;;;4.13;1.63;;;8.30;58.30;;;7.42;50.31;99065.28;4992743;28;20506;-77
2021/03/27 08:03:10;;;;;;;5.50;2.10;;;8.50;58.90;;;8.25;48.37;99063.63;4994281;28;20539;-77
2021/03/27 08:06:09;;;;;;;4.60;1.85;;;8.90;58.70;;;8.39;48.37;99068.81;4993384;28;20430;-76
2021/03/27 08:09:17;;;;;;;4.18;1.70;;;9.30;57.30;;;8.29;47.97;99072.78;4992486;28;20571;-77
2021/03/27 08:12:38;;;;;;;4.90;1.80;;;9.40;56.00;;;8.73;47.51;99082.94;4993085;28;20471;-78
2021/03/27 08:15:58;;;;;;;6.75;1.70;;;9.60;56.50;;;8.31;48.42;99078.72;4994803;28;20595;-79
2021/03/27 08:19:26;;;;;;;4.60;1.60;;;9.30;56.70;;;7.67;50.73;99087.56;4994201;28;20449;-77
2021/03/27 08:22:17;;;;;;;6.85;1.58;;;8.60;59.40;;;7.89;49.21;99074.38;4981434;28;20489;-78
2021/03/27 08:24:52;;;;;;;5.00;1.60;;;8.80;58.40;;;8.31;48.77;99086.63;4998800;28;20462;-77
2021/03/27 08:27:47;;;;;;;4.70;1.70;;;9.10;57.80;;;8.53;48.18;99083.69;4976957;28;20431;-78
2021/03/27 08:31:14;;;;;;;3.85;1.50;;;9.40;57.40;;;7.96;50.21;99128.78;4995001;28;20426;-77
2021/03/27 08:34:25;;;;;;;6.47;1.60;;;9.00;58.30;;;7.76;49.86;99104.88;4994077;28;20434;-77
2021/03/27 08:37:41;;;;;;;5.70;1.67;;;8.70;59.00;;;7.88;47.35;99118.38;4993636;28;20579;-77
2021/03/27 08:40:42;;;;;;;2.28;1.40;;;8.90;56.80;;;7.91;46.68;99098.69;4977524;28;20421;-78
2021/03/27 08:43:31;;;;;;;3.73;1.50;;;8.80;55.90;;;8.00;46.70;99100.19;5000350;28;20450;-78
2021/03/27 08:46:40;;;;;;;3.95;1.70;;;8.90;55.10;;;8.23;45.50;99098.13;4998909;28;20418;-79
2021/03/27 08:49:56;;;;;;;5.80;1.50;;;9.00;54.30;;;8.66;44.19;99108.50;4996836;28;20752;-79
2021/03/27 08:53:14;;;;;;;2.08;1.30;;;9.40;53.70;;;8.08;43.33;99148.34;4992468;28;20787;-78
2021/03/27 08:56:34;;;;;;;2.40;1.67;;;9.00;51.10;;;8.22;41.93;99133.41;4994496;28;20437;-78
2021/03/27 09:00:11;;;;;;;4.85;1.92;;;9.30;50.30;;;8.28;41.92;99130.00;4973500;28;20444;-78
2021/03/27 09:03:08;;;;;;;2.75;1.63;;;9.20;50.30;;;8.53;42.31;99125.09;4976524;28;20515;-79
2021/03/27 09:06:09;;;;;;;3.77;1.53;;;9.40;50.60;;;8.62;41.75;99150.34;4982600;28;20460;-79
2021/03/27 09:08:42;;;;;;;10.70;2.03;;;9.50;49.60;;;8.28;41.52;99131.81;4988781;28;20434;-78
2021/03/27 09:11:45;;;;;;;2.78;1.40;;;9.20;48.90;;;8.20;42.34;99126.69;5003033;28;20436;-78
2021/03/27 09:14:53;;;;;;;6.30;1.40;;;9.20;49.80;;;8.41;41.68;99132.78;4997286;28;20433;-78
2021/03/27 09:18:02;;;;;;;1.65;1.40;;;9.40;49.70;;;8.96;40.30;99133.63;4996599;28;20561;-78
2021/03/27 09:20:51;;;;;;;3.70;1.50;;;9.70;49.30;;;9.16;39.83;99142.44;4997919;28;20466;-78
2021/03/27 09:23:38;;;;;;;3.53;1.42;;;10.00;47.80;;;8.59;41.10;99141.97;4997654;28;20438;-78
2021/03/27 09:26:34;;;;;;;2.42;1.30;;;9.70;47.90;;;8.59;40.90;99158.63;4999210;28;20457;-78
2021/03/27 09:29:27;;;;;;;1.98;1.48;;;9.50;49.00;;;8.24;41.97;99156.97;4995676;28;20533;-78
2021/03/27 09:32:22;;;;;;;7.80;1.83;;;9.20;49.30;;;8.31;42.49;99156.03;4984647;28;20484;-77
2021/03/27 09:35:16;;;;;;;3.30;1.48;;;9.20;50.10;;;8.54;41.81;99167.16;4995292;28;20439;-77
2021/03/27 09:38:05;;;;;;;3.87;1.50;;;9.40;49.50;;;8.65;41.73;99170.22;4996277;28;20853;-78
2021/03/27 09:40:42;;;;;;;3.45;1.60;;;9.50;49.50;;;8.41;42.08;99177.63;4997278;28;20433;-77
2021/03/27 09:43:54;;;;;;;3.05;1.50;;;9.30;50.10;;;8.47;41.42;99168.13;4994812;28;20480;-78
2021/03/27 09:46:28;;;;;;;11.00;2.08;;;9.40;48.90;;;8.77;38.96;99181.91;4993427;28;20525;-78
2021/03/27 09:49:10;;;;;;;3.17;1.60;;;9.60;47.00;;;9.25;38.88;99183.50;5008534;28;20429;-78
2021/03/27 09:52:17;;;;;;;2.83;1.30;;;10.00;46.60;;;8.51;40.47;99193.09;5011399;28;20414;-78
2021/03/27 09:54:49;;;;;;;5.78;2.83;;;9.60;47.30;;;8.93;39.30;99192.13;4997502;28;20437;-79
2021/03/27 09:57:26;;;;;;;3.43;1.60;;;9.70;47.20;;;9.03;39.32;99189.09;5008325;28;20402;-79
2021/03/27 10:00:13;;;;;;;3.30;1.65;;;9.90;46.80;;;8.85;38.59;99184.38;5001992;28;20595;-78
2021/03/27 10:02:49;;;;;;;3.40;1.48;;;9.90;45.60;;;8.77;40.18;99193.28;4998717;28;20801;-78
2021/03/27 10:05:32;;;;;;;2.50;1.50;;;9.70;47.10;;;9.62;37.20;99190.09;5005002;28;20418;-79
2021/03/27 10:08:12;;;;;;;2.92;1.40;;;10.30;45.60;;;9.74;36.31;99210.69;5007681;28;20414;-78
2021/03/27 10:10:59;;;;;;;3.50;1.63;;;10.70;43.40;;;9.76;35.84;99195.44;5007326;28;20932;-79
2021/03/27 10:13:59;;;;;;;3.15;1.70;;;10.60;42.60;;;9.70;35.15;99203.16;5012071;28;20549;-79
2021/03/27 10:16:41;;;;;;;4.15;1.80;;;10.70;41.40;;;9.98;34.85;99191.59;5027501;28;20558;-78
2021/03/27 10:19:31;;;;;;;3.33;1.23;;;10.90;41.20;;;10.35;34.38;99198.13;5021592;28;20459;-83
2021/03/27 10:22:21;;;;;;;4.73;1.53;;;11.30;41.20;;;10.94;33.39;99200.66;4993169;28;20439;-82
2021/03/27 10:24:54;;;;;;;6.93;1.52;;;11.60;40.30;;;11.11;32.41;99196.53;5008153;28;20476;-81
2021/03/27 10:27:31;;;;;;;4.85;1.77;;;11.90;39.50;;;11.20;32.16;99192.59;4992457;28;20425;-79
2021/03/27 10:30:04;;;;;;;4.03;1.50;;;12.00;38.70;;;11.57;32.34;99203.47;5009190;28;21092;-82
2021/03/27 10:33:06;;;;;;;2.00;1.10;;;12.20;38.90;;;10.69;33.19;99191.75;5008929;28;20488;-80
2021/03/27 10:36:21;;;;;;;3.33;1.33;;;11.70;39.20;;;10.22;35.23;99204.25;5009944;28;20493;-82
2021/03/27 10:39:30;;;;;;;1.77;1.30;;;11.30;40.90;;;9.07;37.13;99251.13;5016976;28;20490;-79
2021/03/27 10:42:46;;;;;;;3.60;1.48;;;10.40;43.30;;;9.65;36.47;99228.56;4994757;28;20734;-78
2021/03/27 10:45:37;;;;;;;2.05;1.40;;;10.40;44.30;;;9.60;36.30;99220.44;5001452;28;20506;-80
2021/03/27 10:48:54;;;;;;;3.42;1.45;;;10.40;43.50;;;9.14;37.71;99220.25;5001042;28;20419;-78
2021/03/27 10:52:07;;;;;;;3.22;1.55;;;10.20;44.00;;;9.20;36.83;99222.13;4978320;28;20445;-79
2021/03/27 10:55:09;;;;;;;4.40;1.58;;;10.20;43.70;;;9.02;36.80;99227.91;5012722;28;20423;-79
2021/03/27 10:58:41;;;;;;;10.05;2.05;;;9.90;43.30;;;9.27;36.17;99231.69;5002739;28;20426;-78
2021/03/27 11:01:52;;;;;;;4.25;1.92;;;10.10;43.10;;;9.19;36.71;99231.03;4983535;28;20435;-78
2021/03/27 11:05:22;;;;;;;3.88;1.80;;;10.10;43.20;;;9.18;36.81;99230.22;5016766;28;20507;-78
2021/03/27 11:08:35;;;;;;;4.68;2.00;;;10.00;43.70;;;9.21;36.07;99234.31;4997926;28;20411;-79
2021/03/27 11:12:05;;;;;;;3.80;1.60;;;10.20;42.90;;;9.66;36.02;99243.44;5004729;28;20430;-79
2021/03/27 11:15:17;;;;;;;6.35;1.63;;;10.40;43.00;;;9.00;36.41;99250.28;5040243;28;20516;-81
2021/03/27 11:18:33;;;;;;;3.05;1.63;;;10.20;42.20;;;8.78;37.70;99228.41;5041198;28;20792;-79
2021/03/27 11:21:26;;;;;;;4.90;2.20;;;9.90;44.10;;;8.74;37.55;99253.56;4981943;28;20587;-77
2021/03/27 11:24:44;;;;;;;2.60;1.42;;;9.80;44.50;;;8.62;37.90;99226.88;4997630;28;20406;-79
2021/03/27 11:27:43;;;;;;;9.10;1.52;;;9.60;45.00;;;8.49;37.90;99240.78;4998733;28;20439;-79
2021/03/27 11:30:23;;;;;;;2.70;1.25;;;9.50;44.80;;;8.62;38.69;99240.09;5003303;28;20487;-79
2021/03/27 11:32:56;;;;;;;3.90;1.60;;;9.50;45.60;;;8.57;38.29;99229.28;5003886;28;20491;-78
2021/03/27 11:35:29;;;;;;;3.55;1.50;;;9.50;45.70;;;8.63;38.10;99241.72;4994944;28;20499;-78
2021/03/27 11:38:13;;;;;;;4.80;1.42;;;9.60;45.00;;;8.75;38.18;99253.38;4994690;28;20423;-79
2021/03/27 11:40:54;;;;;;;5.57;1.63;;;9.70;45.10;;;8.93;37.82;99248.41;4994500;28;20434;-79
2021/03/27 11:43:50;;;;;;;7.57;1.90;;;9.80;44.80;;;8.88;37.73;99252.63;5003252;28;20414;-78
2021/03/27 11:46:25;;;;;;;8.35;2.00;;;9.90;44.50;;;8.98;37.93;99236.44;4993764;28;20495;-79
2021/03/27 11:49:04;;;;;;;3.92;1.75;;;9.80;44.80;;;8.99;37.17;99236.25;5012243;28;20399;-79
2021/03/27 11:51:41;;;;;;;2.90;1.40;;;9.90;44.10;;;8.66;38.34;99237.88;4994894;28;20419;-79
2021/03/27 11:54:22;;;;;;;6.50;2.08;;;9.60;44.80;;;8.80;38.39;99256.22;4996080;28;20448;-80
2021/03/27 11:57:30;;;;;;;7.13;2.10;;;9.70;45.20;;;8.86;37.92;99244.09;4997587;28;20480;-78
2021/03/27 12:03:26;;;;;;;4.53;1.60;;;9.90;44.40;;;8.86;37.67;99237.00;5011187;28;20406;-80
2021/03/27 12:06:04;;;;;;;9.82;1.95;;;9.80;44.50;;;8.87;38.14;99256.31;4977525;28;20836;-78
2021/03/27 12:08:39;;;;;;;5.95;1.80;;;9.90;44.70;;;8.84;38.20;99236.38;4992818;28;20450;-78